createdAt,value
2023-04-01T00:01:55.680Z,94.16
2023-04-01T00:04:22.140Z,94.42
2023-04-01T00:06:48.789Z,94.30
2023-04-01T00:09:15.345Z,94.34
2023-04-01T00:11:41.828Z,94.05
2023-04-01T00:14:08.868Z,94.28
2023-04-01T00:16:35.487Z,94.29
2023-04-01T00:19:01.949Z,94.10
2023-04-01T00:21:28.433Z,94.29
2023-04-01T00:23:55.135Z,94.37
2023-04-01T00:26:22.838Z,94.46
2023-04-01T00:28:50.200Z,94.26
2023-04-01T00:31:17.388Z,94.50
2023-04-01T00:33:44.373Z,94.32
2023-04-01T00:36:16.210Z,94.67
2023-04-01T00:38:43.875Z,94.40
2023-04-01T00:41:15.814Z,94.40
2023-04-01T00:43:44.462Z,94.48
2023-04-01T00:46:11.049Z,94.43
2023-04-01T00:48:40.750Z,94.56
2023-04-01T00:51:36.434Z,95.77
2023-04-01T00:54:06.771Z,94.35
2023-04-01T00:56:34.942Z,94.37
2023-04-01T00:59:05.227Z,94.65
2023-04-01T01:01:32.657Z,95.27
2023-04-01T01:03:59.133Z,94.07
2023-04-01T01:06:51.691Z,95.92
2023-04-01T01:09:53.559Z,95.80
2023-04-01T01:12:30.241Z,94.46
2023-04-01T01:15:27.325Z,95.82
2023-04-01T01:18:15.433Z,94.97
2023-04-01T01:21:18.560Z,96.15
2023-04-01T01:23:57.287Z,95.08
2023-04-01T01:26:53.884Z,96.28
2023-04-01T01:29:46.577Z,96.17
2023-04-01T01:32:18.724Z,95.56
2023-04-01T01:35:03.924Z,94.61
2023-04-01T01:37:32.062Z,94.94
2023-04-01T01:40:03.814Z,95.22
2023-04-01T01:42:32.470Z,94.92
2023-04-01T01:45:00.923Z,94.94
2023-04-01T01:47:29.977Z,95.14
2023-04-01T01:49:57.010Z,95.26
2023-04-01T01:52:24.819Z,95.15
2023-04-01T01:54:53.748Z,95.22
2023-04-01T01:57:26.512Z,95.27
2023-04-01T01:59:59.946Z,95.53
2023-04-01T02:02:27.349Z,95.09
2023-04-01T02:04:54.958Z,95.29
2023-04-01T02:07:29.177Z,95.55
2023-04-01T02:09:56.365Z,95.23
2023-04-01T02:12:24.914Z,95.31
2023-04-01T02:14:56.361Z,95.64
2023-04-01T02:17:27.513Z,95.58
2023-04-01T02:20:00.806Z,95.89
2023-04-01T02:22:34.978Z,95.91
2023-04-01T02:25:11.525Z,96.25
2023-04-01T02:27:39.534Z,95.36
2023-04-01T02:30:09.666Z,95.71
2023-04-01T02:32:39.555Z,95.43
2023-04-01T02:35:17.640Z,95.47
2023-04-01T02:37:45.392Z,95.06
2023-04-01T02:40:14.944Z,95.48
2023-04-01T02:42:41.702Z,95.20
2023-04-01T02:45:08.998Z,95.35
2023-04-01T02:47:36.240Z,95.31
2023-04-01T02:50:03.242Z,95.42
2023-04-01T02:52:30.822Z,95.41
2023-04-01T02:54:58.081Z,95.43
2023-04-01T02:57:25.655Z,95.27
2023-04-01T02:59:52.721Z,95.54
2023-04-01T03:02:19.228Z,95.49
2023-04-01T03:04:46.652Z,95.36
2023-04-01T03:07:13.210Z,95.47
2023-04-01T03:09:40.884Z,95.35
2023-04-01T03:12:07.405Z,95.40
2023-04-01T03:14:33.941Z,95.42
2023-04-01T03:17:00.629Z,95.55
2023-04-01T03:19:27.106Z,95.59
2023-04-01T03:21:53.552Z,95.36
2023-04-01T03:24:21.318Z,95.56
2023-04-01T03:26:47.828Z,95.34
2023-04-01T03:29:16.610Z,95.31
2023-04-01T03:31:43.259Z,95.35
2023-04-01T03:34:09.939Z,95.19
2023-04-01T03:36:36.429Z,95.37
2023-04-01T03:39:06.166Z,95.47
2023-04-01T03:41:32.917Z,95.21
2023-04-01T03:43:59.410Z,95.39
2023-04-01T03:46:26.036Z,95.45
2023-04-01T03:48:52.486Z,95.50
2023-04-01T03:51:19.025Z,95.52
2023-04-01T03:53:45.716Z,95.64
2023-04-01T03:56:12.314Z,95.55
2023-04-01T03:58:41.789Z,95.82
2023-04-01T04:01:22.421Z,96.86
2023-04-01T04:03:50.997Z,95.51
2023-04-01T04:06:20.793Z,95.57
2023-04-01T04:08:47.398Z,95.39
2023-04-01T04:11:14.369Z,95.28
2023-04-01T04:13:40.905Z,95.40
2023-04-01T04:16:08.415Z,95.38
2023-04-01T04:18:35.313Z,95.43
2023-04-01T04:21:01.813Z,95.56
2023-04-01T04:23:30.713Z,95.49
2023-04-01T04:25:59.985Z,95.63
2023-04-01T04:28:27.777Z,95.61
2023-04-01T04:30:55.605Z,95.78
2023-04-01T04:33:22.990Z,95.81
2023-04-01T04:35:50.083Z,95.70
2023-04-01T04:38:17.044Z,95.76
2023-04-01T04:40:44.196Z,95.88
2023-04-01T04:43:12.549Z,95.96
2023-04-01T04:45:39.032Z,95.77
2023-04-01T04:48:09.116Z,96.14
2023-04-01T04:50:36.189Z,95.97
2023-04-01T04:53:03.592Z,95.96
2023-04-01T04:55:30.151Z,96.12
2023-04-01T04:57:56.645Z,96.24
2023-04-01T05:00:23.154Z,96.44
2023-04-01T05:02:51.857Z,96.21
2023-04-01T05:05:18.362Z,95.34
2023-04-01T05:07:44.892Z,94.35
2023-04-01T05:10:11.523Z,93.54
2023-04-01T05:12:39.793Z,92.52
2023-04-01T05:15:07.082Z,92.35
2023-04-01T05:17:33.897Z,91.65
2023-04-01T05:20:00.887Z,91.60
2023-04-01T05:22:27.606Z,91.53
2023-04-01T05:24:54.062Z,91.39
2023-04-01T05:27:20.946Z,91.38
2023-04-01T05:29:47.453Z,91.56
2023-04-01T05:32:14.022Z,91.87
2023-04-01T05:34:40.486Z,91.79
2023-04-01T05:37:08.306Z,91.75
2023-04-01T05:39:39.382Z,92.29
2023-04-01T05:42:09.309Z,92.76
2023-04-01T05:44:36.640Z,92.54
2023-04-01T05:47:05.110Z,92.64
2023-04-01T05:49:32.127Z,93.02
2023-04-01T05:51:58.598Z,93.16
2023-04-01T05:54:25.048Z,93.31
2023-04-01T05:56:51.677Z,93.16
2023-04-01T05:59:18.166Z,93.35
2023-04-01T06:01:45.040Z,93.33
2023-04-01T06:04:16.670Z,93.15
2023-04-01T06:06:43.652Z,93.30
2023-04-01T06:09:28.643Z,94.49
2023-04-01T06:12:10.566Z,93.73
2023-04-01T06:14:58.498Z,93.28
2023-04-01T06:17:49.092Z,94.88
2023-04-01T06:20:49.651Z,94.02
2023-04-01T06:23:42.311Z,94.20
2023-04-01T06:26:25.151Z,94.19
2023-04-01T06:29:20.402Z,93.64
2023-04-01T06:32:16.424Z,94.54
2023-04-01T06:34:48.978Z,93.68
2023-04-01T06:37:26.896Z,94.10
2023-04-01T06:40:25.433Z,94.06
2023-04-01T06:43:17.391Z,94.04
2023-04-01T06:46:07.995Z,94.12
2023-04-01T06:48:59.748Z,93.83
2023-04-01T06:51:50.393Z,93.94
2023-04-01T06:54:25.439Z,94.02
2023-04-01T06:56:59.346Z,93.38
2023-04-01T06:59:35.946Z,94.13
2023-04-01T07:02:16.061Z,93.61
2023-04-01T07:04:47.866Z,93.30
2023-04-01T07:07:33.695Z,93.75
2023-04-01T07:10:03.180Z,92.74
2023-04-01T07:12:32.671Z,93.07
2023-04-01T07:15:04.889Z,92.54
2023-04-01T07:17:37.261Z,92.94
2023-04-01T07:20:18.041Z,93.56
2023-04-01T07:22:47.265Z,92.52
2023-04-01T07:25:23.877Z,93.01
2023-04-01T07:27:51.316Z,92.58
2023-04-01T07:30:20.511Z,92.54
2023-04-01T07:33:01.130Z,92.54
2023-04-01T07:35:36.675Z,92.86
2023-04-01T07:38:19.039Z,93.32
2023-04-01T07:41:16.890Z,93.69
2023-04-01T07:43:49.418Z,92.94
2023-04-01T07:47:05.884Z,93.43
2023-04-01T07:49:44.307Z,92.07
2023-04-01T07:52:17.651Z,91.88
2023-04-01T07:55:18.423Z,93.21
2023-04-01T07:57:58.926Z,92.63
2023-04-01T08:00:31.044Z,91.54
2023-04-01T08:03:31.848Z,92.36
2023-04-01T08:06:07.748Z,90.96
2023-04-01T08:09:13.437Z,91.59
2023-04-01T08:12:03.148Z,90.46
2023-04-01T08:15:02.350Z,91.34
2023-04-01T08:18:10.590Z,91.48
2023-04-01T08:21:02.780Z,91.37
2023-04-01T08:23:38.494Z,91.23
2023-04-01T08:26:11.581Z,90.56
2023-04-01T08:28:58.319Z,91.37
2023-04-01T08:31:44.848Z,91.83
2023-04-01T08:34:19.365Z,90.66
2023-04-01T08:36:59.790Z,91.03
2023-04-01T08:39:35.259Z,90.91
2023-04-01T08:42:26.327Z,91.51
2023-04-01T08:45:30.663Z,91.76
2023-04-01T08:48:09.566Z,90.78
2023-04-01T08:51:06.843Z,91.12
2023-04-01T08:53:42.317Z,89.92
2023-04-01T08:56:31.277Z,90.33
2023-04-01T08:59:19.158Z,90.69
2023-04-01T09:02:23.202Z,90.24
2023-04-01T09:05:23.409Z,89.76
2023-04-01T09:08:11.534Z,89.86
2023-04-01T09:10:47.985Z,89.74
2023-04-01T09:13:41.349Z,90.41
2023-04-01T09:16:26.240Z,88.86
2023-04-01T09:19:21.116Z,89.76
2023-04-01T09:22:01.170Z,90.38
2023-04-01T09:24:39.944Z,89.72
2023-04-01T09:27:31.647Z,89.92
2023-04-01T09:30:04.205Z,89.16
2023-04-01T09:32:55.113Z,89.62
2023-04-01T09:35:43.317Z,88.76
2023-04-01T09:38:09.718Z,88.38
2023-04-01T09:40:59.206Z,88.65
2023-04-01T09:43:47.186Z,87.44
2023-04-01T09:46:24.656Z,87.21
2023-04-01T09:49:20.116Z,87.55
2023-04-01T09:52:10.839Z,88.05
2023-04-01T09:54:46.065Z,86.53
2023-04-01T09:57:31.441Z,86.50
2023-04-01T10:00:04.138Z,85.26
2023-04-01T10:02:58.574Z,85.70
2023-04-01T10:05:52.686Z,86.84
2023-04-01T10:08:43.661Z,86.33
2023-04-01T10:12:11.757Z,85.18
2023-04-01T10:14:43.892Z,85.07
2023-04-01T10:17:40.553Z,86.07
2023-04-01T10:20:40.833Z,86.36
2023-04-01T10:23:26.169Z,85.70
2023-04-01T10:26:07.871Z,84.66
2023-04-01T10:28:51.869Z,85.49
2023-04-01T10:31:46.959Z,86.91
2023-04-01T10:34:38.019Z,85.10
2023-04-01T10:37:22.433Z,84.90
2023-04-01T10:40:00.923Z,85.19
2023-04-01T10:42:48.596Z,85.38
2023-04-01T10:45:33.094Z,86.25
2023-04-01T10:48:27.807Z,85.30
2023-04-01T10:51:10.388Z,84.08
2023-04-01T10:53:50.268Z,84.59
2023-04-01T10:56:34.985Z,84.63
2023-04-01T10:59:13.489Z,83.63
2023-04-01T11:02:10.019Z,83.51
2023-04-01T11:04:47.082Z,83.71
2023-04-01T11:08:02.771Z,84.75
2023-04-01T11:10:53.441Z,83.31
2023-04-01T11:13:38.117Z,81.52
2023-04-01T11:16:14.450Z,81.55
2023-04-01T11:19:17.808Z,81.77
2023-04-01T11:22:10.396Z,81.20
2023-04-01T11:24:53.042Z,82.17
2023-04-01T11:27:41.315Z,81.63
2023-04-01T11:30:38.578Z,82.07
2023-04-01T11:33:14.122Z,81.83
2023-04-01T11:36:07.681Z,81.56
2023-04-01T11:38:59.864Z,81.80
2023-04-01T11:41:43.192Z,82.34
2023-04-01T11:44:30.600Z,82.98
2023-04-01T11:47:34.507Z,83.00
2023-04-01T11:50:07.431Z,81.43
2023-04-01T11:52:48.112Z,81.87
2023-04-01T11:55:26.189Z,82.40
2023-04-01T11:58:01.429Z,82.64
2023-04-01T12:00:36.998Z,82.36
2023-04-01T12:03:36.715Z,82.60
2023-04-01T12:06:09.334Z,82.17
2023-04-01T12:08:55.588Z,82.11
2023-04-01T12:11:42.860Z,82.24
2023-04-01T12:14:44.370Z,81.59
2023-04-01T12:17:45.012Z,82.73
2023-04-01T12:20:14.588Z,81.24
2023-04-01T12:23:02.155Z,82.13
2023-04-01T12:26:17.459Z,83.04
2023-04-01T12:29:25.738Z,82.48
2023-04-01T12:32:18.305Z,82.53
2023-04-01T12:34:59.572Z,82.80
2023-04-01T12:37:37.229Z,81.40
2023-04-01T12:40:06.427Z,81.41
2023-04-01T12:42:48.868Z,81.85
2023-04-01T12:45:53.259Z,81.98
2023-04-01T12:48:37.922Z,81.59
2023-04-01T12:51:19.272Z,81.76
2023-04-01T12:54:20.041Z,81.76
2023-04-01T12:57:13.671Z,82.38
2023-04-01T12:59:43.113Z,81.29
2023-04-01T13:02:27.895Z,82.16
2023-04-01T13:05:06.122Z,80.85
2023-04-01T13:08:16.981Z,81.48
2023-04-01T13:10:57.946Z,81.00
2023-04-01T13:13:36.440Z,81.29
2023-04-01T13:16:03.516Z,81.52
2023-04-01T13:19:11.773Z,82.49
2023-04-01T13:21:51.433Z,82.02
2023-04-01T13:24:44.560Z,81.97
2023-04-01T13:27:30.660Z,81.60
2023-04-01T13:30:12.360Z,80.98
2023-04-01T13:32:51.614Z,81.15
2023-04-01T13:35:31.514Z,80.54
2023-04-01T13:38:23.179Z,81.08
2023-04-01T13:41:03.839Z,80.79
2023-04-01T13:44:03.459Z,81.33
2023-04-01T13:46:29.870Z,80.74
2023-04-01T13:49:20.987Z,81.71
2023-04-01T13:52:12.596Z,81.55
2023-04-01T13:55:23.664Z,81.01
2023-04-01T13:58:11.227Z,81.09
2023-04-01T14:01:01.263Z,81.01
2023-04-01T14:03:58.931Z,80.41
2023-04-01T14:06:47.287Z,80.37
2023-04-01T14:09:31.960Z,79.93
2023-04-01T14:12:10.323Z,79.14
2023-04-01T14:14:48.845Z,78.32
2023-04-01T14:17:34.476Z,78.98
2023-04-01T14:20:22.925Z,78.75
2023-04-01T14:23:26.716Z,78.87
2023-04-01T14:26:15.095Z,79.50
2023-04-01T14:28:46.930Z,78.54
2023-04-01T14:31:39.420Z,78.11
2023-04-01T14:34:36.425Z,78.87
2023-04-01T14:37:32.132Z,78.02
2023-04-01T14:40:28.282Z,77.32
2023-04-01T14:43:06.954Z,78.17
2023-04-01T14:45:51.679Z,76.73
2023-04-01T14:48:26.254Z,76.59
2023-04-01T14:50:56.341Z,76.84
2023-04-01T14:53:25.870Z,76.54
2023-04-01T14:56:06.615Z,76.80
2023-04-01T14:58:46.782Z,76.75
2023-04-01T15:01:22.403Z,76.69
2023-04-01T15:03:57.833Z,76.83
2023-04-01T15:07:01.586Z,76.40
2023-04-01T15:09:46.868Z,76.69
2023-04-01T15:12:30.446Z,76.26
2023-04-01T15:15:29.255Z,77.17
2023-04-01T15:18:21.110Z,77.38
2023-04-01T15:21:17.901Z,78.24
2023-04-01T15:23:57.725Z,78.60
2023-04-01T15:26:38.129Z,78.46
2023-04-01T15:29:34.609Z,78.66
2023-04-01T15:32:20.346Z,79.08
2023-04-01T15:34:52.590Z,78.57
2023-04-01T15:37:47.602Z,79.12
2023-04-01T15:40:33.966Z,78.88
2023-04-01T15:43:08.234Z,78.99
2023-04-01T15:46:07.725Z,78.98
2023-04-01T15:48:34.137Z,79.02
2023-04-01T15:51:09.318Z,78.28
2023-04-01T15:53:38.992Z,78.08
2023-04-01T15:56:27.470Z,78.13
2023-04-01T15:59:06.156Z,78.23
2023-04-01T16:02:01.614Z,78.61
2023-04-01T16:04:46.176Z,77.41
2023-04-01T16:07:54.908Z,77.16
2023-04-01T16:10:43.154Z,77.78
2023-04-01T16:13:18.635Z,77.22
2023-04-01T16:16:03.872Z,77.03
2023-04-01T16:19:00.239Z,77.65
2023-04-01T16:21:54.382Z,77.13
2023-04-01T16:24:44.421Z,77.20
2023-04-01T16:27:21.416Z,77.57
2023-04-01T16:29:54.947Z,77.45
2023-04-01T16:32:50.571Z,77.98
2023-04-01T16:35:26.140Z,78.31
2023-04-01T16:38:01.357Z,77.60
2023-04-01T16:40:45.376Z,77.98
2023-04-01T16:43:29.608Z,77.20
2023-04-01T16:46:27.065Z,76.87
2023-04-01T16:49:13.671Z,77.88
2023-04-01T16:52:06.748Z,77.60
2023-04-01T16:54:58.044Z,78.05
2023-04-01T16:57:31.935Z,78.10
2023-04-01T17:00:20.026Z,78.07
2023-04-01T17:02:56.244Z,77.81
2023-04-01T17:05:40.661Z,77.85
2023-04-01T17:08:51.681Z,78.13
2023-04-01T17:11:29.907Z,76.66
2023-04-01T17:14:20.962Z,77.22
2023-04-01T17:16:57.585Z,76.72
2023-04-01T17:19:34.228Z,77.02
2023-04-01T17:22:20.983Z,77.14
2023-04-01T17:25:10.300Z,76.36
2023-04-01T17:27:50.402Z,76.30
2023-04-01T17:30:39.552Z,76.10
2023-04-01T17:33:47.440Z,76.31
2023-04-01T17:36:33.829Z,75.65
2023-04-01T17:39:25.675Z,75.58
2023-04-01T17:42:34.023Z,75.62
2023-04-01T17:45:06.565Z,75.15
2023-04-01T17:47:54.599Z,75.13
2023-04-01T17:50:45.564Z,75.44
2023-04-01T17:53:32.782Z,75.45
2023-04-01T17:56:02.234Z,74.79
2023-04-01T17:58:39.105Z,75.92
2023-04-01T18:01:24.635Z,75.88
2023-04-01T18:03:51.582Z,74.84
2023-04-01T18:06:39.558Z,75.67
2023-04-01T18:09:27.535Z,75.66
2023-04-01T18:12:06.265Z,75.62
2023-04-01T18:14:56.264Z,75.14
2023-04-01T18:17:22.772Z,74.51
2023-04-01T18:19:58.447Z,75.31
2023-04-01T18:22:41.112Z,74.45
2023-04-01T18:25:35.027Z,74.95
2023-04-01T18:28:20.640Z,75.05
2023-04-01T18:30:58.690Z,74.48
2023-04-01T18:33:47.373Z,74.75
2023-04-01T18:36:39.798Z,74.34
2023-04-01T18:39:14.123Z,74.17
2023-04-01T18:42:18.119Z,74.38
2023-04-01T18:44:57.313Z,74.11
2023-04-01T18:47:49.451Z,74.30
2023-04-01T18:50:37.098Z,74.43
2023-04-01T18:53:21.717Z,73.88
2023-04-01T18:56:02.655Z,73.63
2023-04-01T18:58:35.629Z,73.55
2023-04-01T19:01:37.950Z,73.77
2023-04-01T19:04:10.508Z,73.10
2023-04-01T19:06:43.537Z,73.02
2023-04-01T19:09:29.000Z,72.75
2023-04-01T19:12:10.371Z,72.87
2023-04-01T19:14:36.754Z,72.49
2023-04-01T19:17:19.447Z,73.02
2023-04-01T19:19:45.955Z,72.05
2023-04-01T19:22:28.510Z,72.14
2023-04-01T19:25:21.761Z,72.37
2023-04-01T19:27:53.335Z,71.45
2023-04-01T19:30:34.164Z,71.39
2023-04-01T19:33:38.256Z,72.12
2023-04-01T19:36:14.614Z,70.72
2023-04-01T19:38:53.175Z,70.00
2023-04-01T19:41:28.500Z,68.56
2023-04-01T19:44:10.442Z,67.84
2023-04-01T19:46:58.959Z,69.06
2023-04-01T19:49:31.737Z,68.96
2023-04-01T19:52:04.947Z,68.41
2023-04-01T19:54:41.623Z,68.73
2023-04-01T19:57:16.073Z,68.90
2023-04-01T19:59:58.967Z,69.47
2023-04-01T20:02:38.025Z,69.58
2023-04-01T20:05:34.060Z,70.39
2023-04-01T20:08:26.660Z,70.50
2023-04-01T20:11:04.608Z,70.68
2023-04-01T20:13:52.295Z,70.88
2023-04-01T20:16:19.690Z,70.63
2023-04-01T20:18:50.460Z,71.03
2023-04-01T20:21:32.884Z,71.26
2023-04-01T20:24:14.568Z,71.06
2023-04-01T20:26:50.896Z,70.67
2023-04-01T20:29:48.826Z,68.69
2023-04-01T20:32:20.229Z,68.46
2023-04-01T20:34:57.740Z,67.78
2023-04-01T20:37:42.324Z,68.40
2023-04-01T20:40:31.590Z,68.09
2023-04-01T20:43:10.318Z,68.13
2023-04-01T20:45:57.206Z,68.26
2023-04-01T20:48:38.707Z,68.61
2023-04-01T20:51:07.901Z,68.15
2023-04-01T20:53:45.048Z,69.00
2023-04-01T20:56:17.298Z,68.48
2023-04-01T20:58:54.597Z,69.05
2023-04-01T21:01:42.020Z,69.30
2023-04-01T21:04:31.845Z,69.38
2023-04-01T21:07:18.565Z,69.82
2023-04-01T21:09:56.768Z,70.27
2023-04-01T21:12:40.424Z,70.77
2023-04-01T21:15:42.061Z,70.40
2023-04-01T21:18:14.328Z,70.86
2023-04-01T21:20:41.099Z,71.03
2023-04-01T21:23:26.451Z,71.50
2023-04-01T21:26:43.685Z,71.99
2023-04-01T21:29:46.128Z,71.72
2023-04-01T21:32:29.111Z,72.32
2023-04-01T21:35:23.689Z,72.94
2023-04-01T21:37:56.574Z,73.25
2023-04-01T21:40:42.032Z,73.39
2023-04-01T21:43:33.154Z,73.65
2023-04-01T21:46:17.519Z,73.82
2023-04-01T21:49:29.284Z,74.10
2023-04-01T21:52:14.276Z,74.12
2023-04-01T21:54:52.943Z,74.81
2023-04-01T21:58:04.631Z,74.28
2023-04-01T22:00:39.681Z,74.08
2023-04-01T22:03:35.696Z,73.93
2023-04-01T22:06:17.280Z,74.15
2023-04-01T22:09:00.989Z,74.14
2023-04-01T22:11:45.958Z,74.23
2023-04-01T22:14:28.618Z,73.88
2023-04-01T22:16:59.299Z,73.93
2023-04-01T22:19:37.855Z,74.13
2023-04-01T22:22:32.171Z,74.20
2023-04-01T22:25:34.612Z,74.13
2023-04-01T22:28:10.822Z,74.33
2023-04-01T22:30:47.504Z,74.22
2023-04-01T22:33:32.105Z,74.25
2023-04-01T22:36:18.502Z,74.15
2023-04-01T22:39:07.040Z,74.61
2023-04-01T22:41:52.315Z,74.96
2023-04-01T22:44:24.685Z,74.68
2023-04-01T22:47:06.262Z,74.45
2023-04-01T22:50:11.946Z,75.31
2023-04-01T22:52:43.199Z,74.96
2023-04-01T22:55:25.569Z,75.52
2023-04-01T22:57:59.816Z,75.22
2023-04-01T23:00:34.235Z,75.60
2023-04-01T23:03:09.653Z,75.12
2023-04-01T23:08:47.162Z,74.95
2023-04-01T23:11:26.751Z,74.80
2023-04-01T23:14:21.926Z,75.10
2023-04-01T23:17:00.826Z,74.61
2023-04-01T23:19:44.509Z,74.54
2023-04-01T23:22:13.724Z,74.04
2023-04-01T23:25:18.556Z,74.29
2023-04-01T23:28:00.864Z,74.43
2023-04-01T23:30:39.424Z,74.09
2023-04-01T23:33:20.620Z,73.81
2023-04-01T23:35:52.982Z,73.68
2023-04-01T23:38:26.372Z,73.05
2023-04-01T23:40:55.650Z,72.83
2023-04-01T23:43:36.143Z,73.35
2023-04-01T23:46:04.776Z,72.60
2023-04-01T23:48:39.563Z,72.83
2023-04-01T23:51:43.376Z,72.52
2023-04-01T23:54:32.783Z,72.35
2023-04-01T23:56:59.558Z,71.73
2023-04-01T23:59:36.061Z,71.95
